This demonstration page uses our WeatherBlox Daily Observations layout. Learn more.

Hourly Observations for October 9, 2020

Temp ( °F °C ) Dew Point ( °F °C ) Humidity (%) Winds ( mph kmh ) Pressure ( in mb ) Visibility ( mi km ) Precip ( " mm )
12:53 am 00:53 Clear 46 7.8 33 0.6 61 61 NNW 5 7 29.77 1008 7 11.26538 0 0
1:53 am 01:53 Clear 47 8.3 31 -0.6 54 54 NE 5 7 29.75 1007 8 12.87472 0 0
2:53 am 02:53 Clear 47 8.3 31 -0.6 54 54 ENE 5 7 29.73 1007 8 12.87472 0 0
3:53 am 03:53 Clear 44 6.7 31 -0.6 60 60 Calm 29.74 1007 8 12.87472 0 0
4:53 am 04:53 Clear 44 6.7 30 -1.1 58 58 NNW 7 11 29.75 1008 7 11.26538 0 0
5:53 am 05:53 Clear 45 7.2 28 -2.2 52 52 NNW 8 13 29.79 1009 7 11.26538 0 0
6:53 am 06:53 Clear 49 9.4 27 -2.8 43 43 NW 6 9 29.8 1009 9 14.48406 0 0
7:53 am 07:53 Sunny 48 8.9 29 -1.7 48 48 WNW 3 6 29.85 1011 8 12.87472 0 0
8:53 am 08:53 Sunny 58 14.4 30 -1.1 35 35 NW 8 13 29.84 1010 9 14.48406 0 0
9:53 am 09:53 Sunny 68 20 29 -1.7 23 23 WNW 9 15 29.83 1010 10 16.0934 0 0
10:53 am 10:53 Sunny 75 23.9 28 -2.2 18 18 W 13 20 29.83 1010 10 16.0934 0 0
11:53 am 11:53 Sunny 80 26.7 22 -5.6 11 11 WNW 15 24 29.82 1010 10 16.0934 0 0
12:53 pm 12:53 Sunny 82 27.8 18 -7.8 9 9 WNW 15 24 29.82 1010 10 16.0934 0 0
1:53 pm 13:53 Sunny 84 28.9 15 -9.4 7 7 W 10 17 29.8 1009 10 16.0934 0 0
2:53 pm 14:53 Sunny 85 29.4 18 -7.8 8 8 WNW 12 19 29.79 1009 10 16.0934 0 0
3:53 pm 15:53 Sunny 86 30 17 -8.3 8 8 W 10 17 29.8 1009 10 16.0934 0 0
4:53 pm 16:53 Sunny 84 28.9 13 -10.6 7 7 W 7 11 29.8 1009 10 16.0934 0 0
5:53 pm 17:53 Sunny 76 24.4 21 -6.1 13 13 NE 10 17 29.82 1010 9 14.48406 0 0
6:53 pm 18:53 Clear 64 17.8 26 -3.3 24 24 NE 10 17 29.84 1011 10 16.0934 0 0
7:53 pm 19:53 Clear 64 17.8 28 -2.2 26 26 NE 8 13 29.87 1012 10 16.0934 0 0
8:53 pm 20:53 Clear 60 15.6 26 -3.3 27 27 Calm 29.89 1012 8 12.87472 0 0
9:53 pm 21:53 Clear 57 13.9 26 -3.3 30 30 Calm 29.88 1012 7 11.26538 0 0
10:53 pm 22:53 Clear 52 11.1 28 -2.2 40 40 NNE 9 15 29.9 1013 10 16.0934 0 0
11:53 pm 23:53 Clear 51 10.6 30 -1.1 44 44 Calm 29.89 1012 10 16.0934 0 0

Powered by AerisWeather